createdAt,value
2018-07-25T00:00:01.101Z,63.66
2018-07-25T00:01:01.312Z,63.64
2018-07-25T00:02:01.191Z,63.68
2018-07-25T00:03:01.061Z,63.62
2018-07-25T00:04:01.094Z,63.63
2018-07-25T00:05:01.154Z,63.68
2018-07-25T00:06:01.059Z,63.64
2018-07-25T00:07:01.367Z,63.66
2018-07-25T00:08:01.016Z,63.62
2018-07-25T00:09:01.218Z,63.67
2018-07-25T00:10:01.085Z,63.67
2018-07-25T00:11:01.329Z,63.67
2018-07-25T00:12:01.120Z,63.66
2018-07-25T00:13:01.109Z,63.67
2018-07-25T00:14:01.218Z,63.65
2018-07-25T00:15:01.134Z,63.68
2018-07-25T00:16:01.408Z,63.69
2018-07-25T00:17:01.203Z,63.67
2018-07-25T00:18:01.349Z,63.66
2018-07-25T00:19:01.139Z,63.66
2018-07-25T00:20:01.118Z,63.67
2018-07-25T00:21:01.205Z,63.65
2018-07-25T00:22:01.203Z,63.66
2018-07-25T00:23:01.243Z,63.66
2018-07-25T00:24:01.069Z,63.67
2018-07-25T00:25:01.214Z,63.66
2018-07-25T00:26:01.289Z,63.67
2018-07-25T00:27:01.302Z,63.69
2018-07-25T00:28:01.259Z,63.66
2018-07-25T00:29:01.329Z,63.69
2018-07-25T00:30:01.161Z,63.67
2018-07-25T00:31:01.373Z,63.67
2018-07-25T00:32:01.374Z,63.67
2018-07-25T00:33:01.062Z,63.69
2018-07-25T00:34:01.272Z,63.68
2018-07-25T00:35:01.265Z,63.68
2018-07-25T00:36:01.117Z,63.67
2018-07-25T00:37:01.248Z,63.69
2018-07-25T00:38:01.207Z,63.69
2018-07-25T00:39:01.183Z,63.68
2018-07-25T00:40:01.168Z,63.67
2018-07-25T00:41:01.272Z,63.69
2018-07-25T00:42:01.112Z,63.67
2018-07-25T00:43:01.435Z,63.68
2018-07-25T00:44:01.159Z,63.66
2018-07-25T00:45:01.401Z,63.66
2018-07-25T00:46:01.550Z,63.7
2018-07-25T00:47:01.151Z,63.66
2018-07-25T00:48:01.158Z,63.66
2018-07-25T00:49:01.074Z,63.67
2018-07-25T00:50:00.984Z,63.68
2018-07-25T00:51:01.266Z,63.68
2018-07-25T00:52:01.273Z,63.69
2018-07-25T00:53:01.409Z,63.7
2018-07-25T00:54:01.344Z,63.7
2018-07-25T00:55:01.300Z,63.7
2018-07-25T00:56:01.324Z,63.68
2018-07-25T00:57:01.400Z,63.67
2018-07-25T00:58:01.372Z,63.67
2018-07-25T00:59:01.239Z,63.67
2018-07-25T01:00:01.203Z,63.65
2018-07-25T01:01:01.183Z,63.65
2018-07-25T01:02:01.053Z,63.68
2018-07-25T01:03:01.226Z,63.69
2018-07-25T01:04:01.282Z,63.67
2018-07-25T01:05:01.209Z,63.7
2018-07-25T01:06:01.349Z,63.65
2018-07-25T01:07:01.328Z,63.72
2018-07-25T01:08:01.077Z,63.71
2018-07-25T01:09:01.032Z,63.67
2018-07-25T01:10:01.226Z,63.67
2018-07-25T01:11:01.173Z,63.67
2018-07-25T01:12:01.272Z,63.67
2018-07-25T01:13:01.191Z,63.69
2018-07-25T01:14:01.166Z,63.68
2018-07-25T01:15:01.162Z,63.64
2018-07-25T01:16:01.108Z,63.7
2018-07-25T01:17:01.091Z,63.7
2018-07-25T01:18:01.100Z,63.65
2018-07-25T01:19:01.115Z,63.7
2018-07-25T01:20:01.128Z,63.67
2018-07-25T01:21:01.280Z,63.7
2018-07-25T01:22:01.171Z,63.68
2018-07-25T01:23:01.359Z,63.69
2018-07-25T01:24:01.324Z,63.67
2018-07-25T01:25:01.103Z,63.66
2018-07-25T01:26:01.129Z,63.72
2018-07-25T01:27:01.021Z,63.7
2018-07-25T01:28:01.257Z,63.68
2018-07-25T01:29:01.229Z,63.64
2018-07-25T01:30:01.346Z,63.66
2018-07-25T01:31:01.234Z,63.65
2018-07-25T01:32:01.341Z,63.69
2018-07-25T01:33:01.015Z,63.69
2018-07-25T01:34:01.131Z,63.72
2018-07-25T01:35:01.143Z,63.69
2018-07-25T01:36:01.037Z,63.69
2018-07-25T01:37:01.167Z,63.7
2018-07-25T01:38:01.293Z,63.67
2018-07-25T01:39:01.077Z,63.7
2018-07-25T01:40:01.122Z,63.64
2018-07-25T01:41:01.404Z,63.71
2018-07-25T01:42:01.215Z,63.7
2018-07-25T01:43:01.176Z,63.7
2018-07-25T01:44:01.167Z,63.7
2018-07-25T01:45:01.191Z,63.73
2018-07-25T01:46:01.284Z,63.67
2018-07-25T01:47:01.514Z,63.69
2018-07-25T01:48:01.087Z,63.69
2018-07-25T01:49:01.496Z,63.7
2018-07-25T01:50:01.449Z,63.7
2018-07-25T01:51:01.306Z,63.72
2018-07-25T01:52:01.319Z,63.68
2018-07-25T01:53:01.162Z,63.7
2018-07-25T01:54:00.988Z,63.7
2018-07-25T01:55:01.284Z,63.73
2018-07-25T01:56:01.226Z,63.68
2018-07-25T01:57:01.045Z,63.67
2018-07-25T01:58:01.478Z,63.68
2018-07-25T01:59:01.216Z,63.69
2018-07-25T02:00:01.104Z,63.7
2018-07-25T02:01:00.995Z,63.7
2018-07-25T02:02:01.333Z,63.69
2018-07-25T02:03:00.988Z,63.71
2018-07-25T02:04:01.335Z,63.7
2018-07-25T02:05:01.358Z,63.7
2018-07-25T02:06:01.152Z,63.69
2018-07-25T02:07:01.228Z,63.66
2018-07-25T02:08:01.487Z,63.7
2018-07-25T02:09:01.163Z,63.68
2018-07-25T02:10:01.222Z,63.69
2018-07-25T02:11:01.236Z,63.7
2018-07-25T02:12:01.027Z,63.67
2018-07-25T02:13:01.114Z,63.67
2018-07-25T02:14:01.320Z,63.68
2018-07-25T02:15:01.222Z,63.67
2018-07-25T02:16:01.350Z,63.72
2018-07-25T02:17:01.261Z,63.7
2018-07-25T02:18:01.290Z,63.69
2018-07-25T02:19:01.247Z,63.7
2018-07-25T02:20:01.366Z,63.68
2018-07-25T02:21:01.068Z,63.7
2018-07-25T02:22:01.294Z,63.7
2018-07-25T02:23:01.305Z,63.71
2018-07-25T02:24:01.308Z,63.7
2018-07-25T02:25:01.127Z,63.72
2018-07-25T02:26:01.030Z,63.72
2018-07-25T02:27:01.099Z,63.69
2018-07-25T02:28:01.202Z,63.7
2018-07-25T02:29:01.207Z,63.71
2018-07-25T02:30:01.095Z,63.65
2018-07-25T02:31:01.258Z,63.66
2018-07-25T02:32:01.127Z,63.68
2018-07-25T02:33:01.136Z,63.7
2018-07-25T02:34:01.070Z,63.66
2018-07-25T02:35:01.292Z,63.71
2018-07-25T02:36:01.032Z,63.7
2018-07-25T02:37:01.436Z,63.7
2018-07-25T02:38:01.349Z,63.7
2018-07-25T02:39:01.101Z,63.69
2018-07-25T02:40:01.204Z,63.65
2018-07-25T02:41:01.174Z,63.7
2018-07-25T02:42:01.082Z,63.7
2018-07-25T02:43:01.204Z,63.67
2018-07-25T02:44:01.196Z,63.69
2018-07-25T02:45:01.315Z,63.67
2018-07-25T02:46:01.274Z,63.68
2018-07-25T02:47:01.547Z,63.72
2018-07-25T02:48:01.074Z,63.68
2018-07-25T02:49:01.225Z,63.71
2018-07-25T02:50:01.211Z,63.72
2018-07-25T02:51:01.296Z,63.69
2018-07-25T02:52:01.280Z,63.66
2018-07-25T02:53:01.002Z,63.67
2018-07-25T02:54:01.214Z,63.67
2018-07-25T02:55:01.229Z,63.68
2018-07-25T02:56:01.091Z,63.68
2018-07-25T02:57:02.524Z,63.7
2018-07-25T02:58:01.099Z,63.73
2018-07-25T02:59:01.304Z,63.68
2018-07-25T03:00:01.269Z,63.66
2018-07-25T03:01:01.289Z,63.68
2018-07-25T03:02:01.825Z,63.7
2018-07-25T03:03:01.169Z,63.7
2018-07-25T03:04:01.053Z,63.68
2018-07-25T03:05:01.207Z,63.73
2018-07-25T03:06:01.048Z,63.68
2018-07-25T03:07:01.700Z,63.69
2018-07-25T03:08:01.489Z,63.7
2018-07-25T03:09:02.996Z,63.71
2018-07-25T03:10:01.499Z,63.71
2018-07-25T03:11:01.274Z,63.71
2018-07-25T03:12:01.298Z,63.67
2018-07-25T03:13:01.180Z,63.7
2018-07-25T03:14:01.250Z,63.69
2018-07-25T03:15:01.178Z,63.66
2018-07-25T03:16:01.224Z,63.67
2018-07-25T03:17:01.281Z,63.69
2018-07-25T03:18:01.243Z,63.69
2018-07-25T03:19:01.419Z,63.72
2018-07-25T03:20:01.577Z,63.68
2018-07-25T03:21:01.346Z,63.69
2018-07-25T03:22:01.129Z,63.7
2018-07-25T03:23:01.134Z,63.69
2018-07-25T03:24:00.997Z,63.68
2018-07-25T03:25:02.171Z,63.68
2018-07-25T03:26:01.061Z,63.67
2018-07-25T03:27:01.174Z,63.71
2018-07-25T03:28:01.165Z,63.72
2018-07-25T03:29:01.590Z,63.69
2018-07-25T03:30:01.137Z,63.69
2018-07-25T03:31:01.191Z,63.69
2018-07-25T03:32:01.309Z,63.71
2018-07-25T03:33:01.070Z,63.7
2018-07-25T03:34:01.591Z,63.66
2018-07-25T03:35:01.148Z,63.7
2018-07-25T03:36:01.452Z,63.66
2018-07-25T03:37:01.290Z,63.68
2018-07-25T03:38:01.673Z,63.72
2018-07-25T03:39:01.324Z,63.67
2018-07-25T03:40:01.242Z,63.68
2018-07-25T03:41:01.007Z,63.71
2018-07-25T03:42:11.170Z,63.68
2018-07-25T03:43:01.355Z,63.67
2018-07-25T03:44:01.113Z,63.67
2018-07-25T03:45:01.196Z,63.67
2018-07-25T03:46:01.324Z,63.69
2018-07-25T03:47:00.984Z,63.69
2018-07-25T03:48:01.145Z,63.67
2018-07-25T03:49:01.071Z,63.69
2018-07-25T03:50:01.129Z,63.69
2018-07-25T03:51:01.197Z,63.68
2018-07-25T03:52:01.126Z,63.69
2018-07-25T03:53:01.149Z,63.68
2018-07-25T03:54:01.090Z,63.68
2018-07-25T03:55:01.246Z,63.68
2018-07-25T03:56:01.025Z,63.68
2018-07-25T03:57:01.071Z,63.66
2018-07-25T03:58:00.945Z,63.69
2018-07-25T03:59:01.225Z,63.68
2018-07-25T04:00:01.183Z,63.67
2018-07-25T04:01:01.063Z,63.7
2018-07-25T04:02:02.164Z,63.7
2018-07-25T04:03:01.389Z,63.72
2018-07-25T04:04:01.192Z,63.69
2018-07-25T04:05:00.969Z,63.69
2018-07-25T04:06:01.260Z,63.69
2018-07-25T04:07:01.115Z,63.67
2018-07-25T04:08:01.192Z,63.71
2018-07-25T04:09:01.397Z,63.67
2018-07-25T04:10:01.176Z,63.71
2018-07-25T04:11:01.076Z,63.67
2018-07-25T04:12:01.194Z,63.65
2018-07-25T04:13:01.032Z,63.68
2018-07-25T04:14:01.071Z,63.71
2018-07-25T04:15:01.156Z,63.7
2018-07-25T04:16:01.309Z,63.67
2018-07-25T04:17:01.232Z,63.71
2018-07-25T04:18:01.311Z,63.7
2018-07-25T04:19:00.882Z,63.69
2018-07-25T04:20:01.187Z,63.68
2018-07-25T04:21:01.193Z,63.69
2018-07-25T04:22:01.289Z,63.69
2018-07-25T04:23:01.058Z,63.69
2018-07-25T04:24:01.082Z,63.67
2018-07-25T04:25:01.206Z,63.65
2018-07-25T04:26:01.047Z,63.7
2018-07-25T04:27:01.061Z,63.68
2018-07-25T04:28:01.042Z,63.67
2018-07-25T04:29:01.121Z,63.66
2018-07-25T04:30:01.203Z,63.64
2018-07-25T04:31:01.226Z,63.7
2018-07-25T04:32:01.010Z,63.72
2018-07-25T04:33:01.300Z,63.69
2018-07-25T04:34:01.092Z,63.67
2018-07-25T04:35:01.067Z,63.68
2018-07-25T04:36:01.378Z,63.68
2018-07-25T04:37:01.163Z,63.7
2018-07-25T04:38:01.257Z,63.7
2018-07-25T04:39:01.297Z,63.66
2018-07-25T04:40:01.211Z,63.66
2018-07-25T04:41:00.992Z,63.68
2018-07-25T04:42:01.277Z,63.65
2018-07-25T04:43:01.302Z,63.67
2018-07-25T04:44:01.014Z,63.65
2018-07-25T04:45:01.172Z,63.68
2018-07-25T04:46:01.920Z,63.71
2018-07-25T04:47:01.263Z,63.67
2018-07-25T04:48:01.146Z,63.66
2018-07-25T04:49:01.250Z,63.69
2018-07-25T04:50:01.026Z,63.67
2018-07-25T04:51:01.180Z,63.67
2018-07-25T04:52:01.212Z,63.66
2018-07-25T04:53:01.260Z,63.68
2018-07-25T04:54:01.064Z,63.64
2018-07-25T04:55:01.101Z,63.62
2018-07-25T04:56:01.620Z,63.69
2018-07-25T04:57:01.101Z,63.68
2018-07-25T04:58:01.232Z,63.65
2018-07-25T04:59:00.958Z,63.66
2018-07-25T05:00:01.161Z,63.64
2018-07-25T05:01:00.947Z,63.65
2018-07-25T05:02:01.156Z,63.65
2018-07-25T05:03:01.113Z,63.65
2018-07-25T05:04:01.075Z,63.65
2018-07-25T05:05:00.968Z,63.68
2018-07-25T05:06:01.151Z,63.68
2018-07-25T05:07:01.579Z,63.69
2018-07-25T05:08:00.992Z,63.68
2018-07-25T05:09:01.234Z,63.64
2018-07-25T05:10:00.998Z,63.62
2018-07-25T05:11:01.138Z,63.7
2018-07-25T05:12:01.196Z,63.61
2018-07-25T05:13:01.196Z,63.66
2018-07-25T05:14:01.160Z,63.7
2018-07-25T05:15:01.210Z,63.63
2018-07-25T05:16:01.171Z,63.66
2018-07-25T05:17:01.140Z,63.66
2018-07-25T05:18:03.002Z,63.65
2018-07-25T05:19:01.113Z,63.62
2018-07-25T05:20:01.170Z,63.63
2018-07-25T05:21:01.004Z,63.66
2018-07-25T05:22:01.216Z,63.65
2018-07-25T05:23:01.053Z,63.69
2018-07-25T05:24:01.318Z,63.65
2018-07-25T05:25:01.249Z,63.62
2018-07-25T05:26:00.941Z,63.65
2018-07-25T05:27:01.252Z,63.64
2018-07-25T05:28:01.147Z,63.63
2018-07-25T05:29:01.259Z,63.66
2018-07-25T05:30:01.392Z,63.68
2018-07-25T05:31:01.134Z,63.64
2018-07-25T05:32:00.970Z,63.65
2018-07-25T05:33:00.900Z,63.61
2018-07-25T05:34:01.249Z,63.65
2018-07-25T05:35:00.968Z,63.66
2018-07-25T05:36:01.255Z,63.65
2018-07-25T05:37:01.146Z,63.67
2018-07-25T05:38:01.721Z,63.67
2018-07-25T05:39:01.160Z,63.66
2018-07-25T05:40:01.016Z,63.69
2018-07-25T05:41:01.154Z,63.66
2018-07-25T05:42:01.226Z,63.66
2018-07-25T05:43:01.159Z,63.72
2018-07-25T05:44:00.987Z,63.71
2018-07-25T05:45:01.145Z,63.69
2018-07-25T05:46:01.126Z,63.68
2018-07-25T05:47:01.090Z,63.73
2018-07-25T05:48:01.101Z,63.68
2018-07-25T05:49:01.183Z,63.71
2018-07-25T05:50:01.133Z,63.69
2018-07-25T05:51:01.120Z,63.7
2018-07-25T05:52:00.949Z,63.66
2018-07-25T05:53:01.018Z,63.66
2018-07-25T05:54:01.232Z,63.66
2018-07-25T05:55:01.106Z,63.67
2018-07-25T05:56:01.120Z,63.69
2018-07-25T05:57:01.048Z,63.67
2018-07-25T05:58:01.183Z,63.7
2018-07-25T05:59:00.999Z,63.69
2018-07-25T06:00:01.071Z,63.67
2018-07-25T06:01:01.084Z,63.7
2018-07-25T06:02:01.003Z,63.69
2018-07-25T06:03:03.043Z,63.67
2018-07-25T06:04:01.121Z,63.68
2018-07-25T06:05:01.130Z,63.67
2018-07-25T06:06:01.982Z,63.65
2018-07-25T06:07:01.025Z,63.69
2018-07-25T06:08:00.999Z,63.69
2018-07-25T06:09:01.097Z,63.61
2018-07-25T06:10:01.048Z,63.71
2018-07-25T06:11:01.168Z,63.68
2018-07-25T06:12:00.945Z,63.65
2018-07-25T06:13:01.020Z,63.66
2018-07-25T06:14:01.033Z,63.7
2018-07-25T06:15:01.171Z,63.62
2018-07-25T06:16:01.055Z,63.67
2018-07-25T06:17:01.022Z,63.66
2018-07-25T06:18:00.964Z,63.66
2018-07-25T06:19:01.179Z,63.63
2018-07-25T06:20:00.917Z,63.64
2018-07-25T06:21:01.081Z,63.65
2018-07-25T06:22:00.995Z,63.66
2018-07-25T06:23:00.962Z,63.63
2018-07-25T06:24:01.052Z,63.66
2018-07-25T06:25:01.166Z,63.66
2018-07-25T06:26:01.971Z,63.67
2018-07-25T06:27:00.992Z,63.66
2018-07-25T06:28:01.099Z,63.65
2018-07-25T06:29:00.931Z,63.66
2018-07-25T06:30:01.046Z,63.62
2018-07-25T06:31:01.261Z,63.65
2018-07-25T06:32:00.971Z,63.68
2018-07-25T06:33:01.172Z,63.65
2018-07-25T06:34:00.969Z,63.66
2018-07-25T06:35:01.119Z,63.67
2018-07-25T06:36:00.932Z,63.63
2018-07-25T06:37:01.106Z,63.63
2018-07-25T06:38:02.355Z,63.63
2018-07-25T06:39:01.061Z,63.63
2018-07-25T06:40:01.118Z,63.66
2018-07-25T06:41:00.949Z,63.65
2018-07-25T06:42:01.310Z,63.66
2018-07-25T06:43:01.109Z,63.65
2018-07-25T06:44:01.024Z,63.65
2018-07-25T06:45:00.979Z,63.63
2018-07-25T06:46:01.116Z,63.67
2018-07-25T06:47:01.413Z,63.65
2018-07-25T06:48:01.031Z,63.63
2018-07-25T06:49:01.122Z,63.66
2018-07-25T06:50:00.980Z,63.67
2018-07-25T06:51:01.138Z,63.63
2018-07-25T06:52:01.107Z,63.63
2018-07-25T06:53:00.973Z,63.66
2018-07-25T06:54:01.023Z,63.63
2018-07-25T06:55:01.112Z,63.68
2018-07-25T06:56:01.158Z,63.65
2018-07-25T06:57:01.343Z,63.63
2018-07-25T06:58:01.333Z,63.6
2018-07-25T06:59:01.078Z,63.62
2018-07-25T07:00:01.216Z,63.63
2018-07-25T07:01:01.052Z,63.61
2018-07-25T07:02:00.969Z,63.63
2018-07-25T07:03:01.177Z,63.61
2018-07-25T07:04:00.857Z,63.62
2018-07-25T07:05:01.162Z,63.58
2018-07-25T07:06:01.203Z,63.65
2018-07-25T07:07:02.510Z,63.63
2018-07-25T07:08:01.053Z,63.6
2018-07-25T07:09:00.954Z,63.6
2018-07-25T07:10:01.134Z,63.61
2018-07-25T07:11:01.200Z,63.63
2018-07-25T07:12:01.597Z,63.65
2018-07-25T07:13:01.122Z,63.64
2018-07-25T07:14:01.301Z,63.65
2018-07-25T07:15:01.284Z,63.62
2018-07-25T07:16:01.090Z,63.65
2018-07-25T07:17:00.889Z,63.63
2018-07-25T07:18:01.228Z,63.61
2018-07-25T07:19:01.211Z,63.61
2018-07-25T07:20:01.020Z,63.61
2018-07-25T07:21:01.062Z,63.59
2018-07-25T07:22:00.929Z,63.62
2018-07-25T07:23:01.220Z,63.6
2018-07-25T07:24:01.959Z,63.6
2018-07-25T07:25:00.964Z,63.61
2018-07-25T07:26:01.123Z,63.59
2018-07-25T07:27:01.005Z,63.59
2018-07-25T07:28:00.995Z,63.63
2018-07-25T07:29:01.016Z,63.58
2018-07-25T07:30:01.164Z,63.63
2018-07-25T07:31:01.116Z,63.6
2018-07-25T07:32:01.037Z,63.6
2018-07-25T07:33:01.090Z,63.61
2018-07-25T07:34:01.161Z,63.6
2018-07-25T07:35:01.613Z,63.61
2018-07-25T07:36:01.130Z,63.59
2018-07-25T07:37:01.105Z,63.61
2018-07-25T07:38:00.993Z,63.6
2018-07-25T07:39:01.179Z,63.6
2018-07-25T07:40:01.144Z,63.59
2018-07-25T07:41:01.047Z,63.57
2018-07-25T07:42:01.079Z,63.59
2018-07-25T07:43:01.015Z,63.59
2018-07-25T07:44:12.113Z,63.6
2018-07-25T07:45:01.029Z,63.59
2018-07-25T07:46:00.931Z,63.58
2018-07-25T07:47:01.161Z,63.61
2018-07-25T07:48:01.130Z,63.59
2018-07-25T07:49:01.168Z,63.62
2018-07-25T07:50:01.206Z,63.56
2018-07-25T07:51:01.221Z,63.61
2018-07-25T07:52:00.988Z,63.6
2018-07-25T07:53:01.060Z,63.58
2018-07-25T07:54:02.219Z,63.57
2018-07-25T07:55:01.152Z,63.57
2018-07-25T07:56:01.038Z,63.57
2018-07-25T07:57:01.129Z,63.6
2018-07-25T07:58:00.935Z,63.56
2018-07-25T07:59:01.153Z,63.57
2018-07-25T08:00:01.109Z,63.6
2018-07-25T08:01:01.035Z,63.68
2018-07-25T08:02:01.038Z,63.6
2018-07-25T08:03:01.239Z,63.57
2018-07-25T08:04:01.041Z,63.71
2018-07-25T08:05:02.114Z,63.73
2018-07-25T08:06:01.045Z,63.71
2018-07-25T08:07:00.877Z,63.72
2018-07-25T08:08:01.091Z,63.67
2018-07-25T08:09:01.100Z,63.66
2018-07-25T08:10:01.102Z,63.64
2018-07-25T08:11:01.174Z,63.69
2018-07-25T08:12:01.068Z,63.68
2018-07-25T08:13:01.027Z,63.68
2018-07-25T08:14:01.059Z,63.65
2018-07-25T08:15:01.308Z,63.63
2018-07-25T08:16:00.876Z,63.6
2018-07-25T08:17:01.019Z,63.61
2018-07-25T08:18:02.229Z,63.6
2018-07-25T08:19:01.381Z,63.65
2018-07-25T08:20:01.964Z,63.63
2018-07-25T08:21:02.307Z,63.63
2018-07-25T08:22:01.082Z,63.63
2018-07-25T08:23:00.969Z,63.66
2018-07-25T08:24:01.059Z,63.78
2018-07-25T08:25:01.075Z,63.76
2018-07-25T08:26:01.108Z,63.85
2018-07-25T08:27:01.054Z,63.78
2018-07-25T08:28:01.061Z,63.76
2018-07-25T08:29:01.129Z,63.7
2018-07-25T08:30:01.180Z,63.74
2018-07-25T08:31:01.139Z,63.69
2018-07-25T08:32:01.224Z,63.66
2018-07-25T08:33:01.218Z,63.63
2018-07-25T08:34:01.013Z,63.68
2018-07-25T08:35:01.098Z,63.67
2018-07-25T08:36:01.287Z,63.71
2018-07-25T08:37:01.173Z,63.64
2018-07-25T08:38:01.054Z,63.61
2018-07-25T08:39:01.077Z,63.62
2018-07-25T08:40:01.127Z,63.64
2018-07-25T08:41:01.160Z,63.65
2018-07-25T09:41:27.507Z,64.38
2018-07-25T09:42:27.616Z,64.32
2018-07-25T09:43:27.945Z,64.36
2018-07-25T09:44:30.265Z,64.35
2018-07-25T09:46:28.689Z,64.31
2018-07-25T09:47:27.870Z,64.27
2018-07-25T09:48:27.466Z,64.27
2018-07-25T09:49:27.619Z,64.26
2018-07-25T09:51:28.957Z,64.22
2018-07-25T09:54:27.652Z,64.17
2018-07-25T09:55:27.544Z,64.17
2018-07-25T09:56:27.431Z,64.11
2018-07-25T09:57:27.465Z,64.06
2018-07-25T09:59:31.686Z,64.06
2018-07-25T10:00:27.390Z,64.08
2018-07-25T10:01:27.304Z,64
2018-07-25T10:04:27.312Z,64.01
2018-07-25T10:06:29.181Z,63.98
2018-07-25T10:07:28.475Z,63.98
2018-07-25T10:08:27.493Z,63.95
2018-07-25T10:09:27.373Z,63.93
2018-07-25T10:11:27.471Z,63.91
2018-07-25T10:12:27.332Z,63.93
2018-07-25T10:13:27.594Z,63.91
2018-07-25T10:14:31.625Z,63.9
2018-07-25T10:16:27.516Z,63.87
2018-07-25T10:17:27.701Z,63.84
2018-07-25T10:18:27.603Z,63.85
2018-07-25T10:19:27.456Z,63.87
2018-07-25T10:21:29.730Z,63.84
2018-07-25T10:22:27.760Z,63.8
2018-07-25T10:24:27.558Z,63.81
2018-07-25T10:25:27.506Z,63.8
2018-07-25T10:26:27.718Z,63.8
2018-07-25T10:27:28.878Z,63.77
2018-07-25T10:29:32.011Z,63.79
2018-07-25T10:30:27.638Z,63.75
2018-07-25T10:31:27.489Z,63.77
2018-07-25T10:34:27.517Z,63.78
2018-07-25T10:36:30.231Z,63.72
2018-07-25T10:37:27.597Z,63.74
2018-07-25T10:38:27.498Z,63.74
2018-07-25T10:41:27.445Z,63.71
2018-07-25T10:42:28.229Z,63.73
2018-07-25T10:43:27.686Z,63.71
2018-07-25T10:46:27.400Z,63.73
2018-07-25T10:47:27.396Z,63.71
2018-07-25T10:48:27.425Z,63.72
2018-07-25T10:49:27.469Z,63.67
2018-07-25T10:51:29.278Z,63.7
2018-07-25T10:53:27.512Z,63.7
2018-07-25T10:54:27.583Z,63.69
2018-07-25T10:55:27.524Z,63.72
2018-07-25T10:56:27.720Z,63.68
2018-07-25T10:58:27.585Z,63.66
2018-07-25T10:59:31.712Z,63.67
2018-07-25T11:00:27.571Z,63.67
2018-07-25T11:01:27.784Z,63.66
2018-07-25T11:04:27.813Z,63.61
2018-07-25T11:05:27.491Z,63.63
2018-07-25T11:06:30.386Z,63.75
2018-07-25T11:08:27.414Z,63.52
2018-07-25T11:09:27.555Z,63.55
2018-07-25T11:10:27.517Z,63.53
2018-07-25T11:11:27.812Z,63.54
2018-07-25T11:14:27.394Z,63.57
2018-07-25T11:15:31.370Z,63.64
2018-07-25T11:16:29.449Z,63.62
2018-07-25T11:19:27.857Z,63.63
2018-07-25T11:20:27.696Z,63.61
2018-07-25T11:21:27.804Z,63.59
2018-07-25T11:22:28.524Z,63.62
2018-07-25T11:24:27.537Z,63.65
2018-07-25T11:26:27.583Z,63.61
2018-07-25T11:27:27.463Z,63.63
2018-07-25T11:28:27.360Z,63.65
2018-07-25T11:29:28.172Z,63.64
2018-07-25T11:31:27.340Z,63.64
2018-07-25T11:32:27.785Z,63.66
2018-07-25T11:33:27.652Z,63.67
2018-07-25T11:34:27.440Z,63.66
2018-07-25T11:36:27.290Z,63.69
2018-07-25T11:37:27.289Z,63.68
2018-07-25T11:38:27.334Z,63.68
2018-07-25T11:39:27.298Z,63.64
2018-07-25T11:41:27.344Z,63.66
2018-07-25T11:42:27.324Z,63.67
2018-07-25T11:43:27.326Z,63.69
2018-07-25T11:44:27.321Z,63.65
2018-07-25T11:46:27.315Z,63.63
2018-07-25T11:48:27.278Z,63.65
2018-07-25T11:49:27.292Z,63.66
2018-07-25T11:50:28.587Z,63.68
2018-07-25T11:52:27.315Z,63.61
2018-07-25T11:53:27.332Z,63.68
2018-07-25T11:54:27.318Z,63.65
2018-07-25T11:55:28.553Z,63.7
2018-07-25T11:57:27.322Z,63.65
2018-07-25T11:58:27.365Z,63.62
2018-07-25T11:59:27.272Z,63.64
2018-07-25T12:00:27.283Z,63.6
2018-07-25T12:02:27.423Z,63.67
2018-07-25T12:03:27.389Z,63.65
2018-07-25T12:04:27.318Z,63.68
2018-07-25T12:05:27.212Z,63.65
2018-07-25T12:08:27.520Z,63.66
2018-07-25T12:09:30.201Z,63.62
2018-07-25T12:10:27.423Z,63.68
2018-07-25T12:11:27.509Z,63.67
2018-07-25T12:13:27.623Z,63.64
2018-07-25T12:14:27.484Z,63.65
2018-07-25T12:15:27.425Z,63.65
2018-07-25T12:16:27.410Z,63.62
2018-07-25T12:19:27.406Z,63.64
2018-07-25T12:20:27.651Z,63.59
2018-07-25T12:21:27.414Z,63.65
2018-07-25T12:24:31.253Z,63.59
2018-07-25T12:25:27.410Z,63.61
2018-07-25T12:26:28.480Z,63.61
2018-07-25T12:29:27.453Z,63.6
2018-07-25T12:30:27.423Z,63.61
2018-07-25T12:31:30.739Z,63.59
2018-07-25T12:35:27.581Z,63.56
2018-07-25T12:36:27.448Z,63.54
2018-07-25T12:37:27.513Z,63.59
2018-07-25T12:38:27.914Z,63.58
2018-07-25T12:40:27.361Z,63.59
2018-07-25T12:41:27.488Z,63.56
2018-07-25T12:42:27.602Z,63.58
2018-07-25T12:43:27.401Z,63.57
2018-07-25T12:46:31.104Z,63.56
2018-07-25T12:48:28.665Z,63.6
2018-07-25T12:51:27.393Z,63.56
2018-07-25T12:52:27.447Z,63.52
2018-07-25T12:53:30.827Z,63.67
2018-07-25T12:55:27.286Z,64.01
2018-07-25T12:56:27.438Z,63.92
2018-07-25T12:57:27.403Z,64.04
2018-07-25T12:58:27.412Z,64.17
2018-07-25T13:00:28.096Z,64.29
2018-07-25T13:01:27.443Z,64.21
2018-07-25T13:02:27.462Z,64.19
2018-07-25T13:03:27.398Z,64.17
2018-07-25T13:05:27.478Z,64.06
2018-07-25T13:06:27.291Z,64.08
2018-07-25T13:07:27.462Z,64.13
2018-07-25T13:08:31.731Z,64.15
2018-07-25T13:10:28.332Z,64.12
2018-07-25T13:11:27.536Z,64.17
2018-07-25T13:12:27.636Z,64.12
2018-07-25T13:13:27.704Z,64.17
2018-07-25T13:17:27.604Z,64.03
2018-07-25T13:18:27.443Z,64.05
2018-07-25T13:19:27.488Z,64.04
2018-07-25T13:20:27.535Z,63.97
2018-07-25T13:22:27.621Z,63.94
2018-07-25T13:23:31.771Z,63.98
2018-07-25T13:24:27.417Z,63.99
2018-07-25T13:25:27.590Z,63.96
2018-07-25T13:28:29.113Z,63.92
2018-07-25T13:29:27.417Z,63.94
2018-07-25T13:30:29.127Z,63.93
2018-07-25T13:33:27.439Z,63.94
2018-07-25T13:34:27.674Z,63.89
2018-07-25T13:35:27.584Z,63.88
2018-07-25T13:36:27.377Z,63.9
2018-07-25T13:38:32.085Z,63.9
2018-07-25T13:39:27.499Z,63.87
2018-07-25T13:40:27.427Z,63.88
2018-07-25T13:42:27.499Z,63.89
2018-07-25T13:43:27.413Z,63.87
2018-07-25T13:44:27.436Z,63.91
2018-07-25T13:45:30.804Z,63.89
2018-07-25T13:48:27.374Z,63.85
2018-07-25T13:49:27.421Z,63.85
2018-07-25T13:50:27.395Z,63.88
2018-07-25T13:51:27.666Z,63.89
2018-07-25T13:53:27.419Z,63.8
2018-07-25T13:54:27.470Z,63.84
2018-07-25T13:55:27.440Z,63.83
2018-07-25T13:56:27.418Z,63.85
2018-07-25T13:58:27.536Z,63.78
2018-07-25T13:59:27.516Z,63.83
2018-07-25T14:00:30.990Z,63.78
2018-07-25T14:01:27.246Z,63.79
2018-07-25T14:03:27.367Z,63.85
2018-07-25T14:04:27.499Z,63.77
2018-07-25T14:05:27.417Z,63.84
2018-07-25T14:06:27.368Z,63.81
2018-07-25T14:08:27.578Z,63.79
2018-07-25T14:10:27.368Z,63.74
2018-07-25T14:11:28.568Z,63.79
2018-07-25T14:12:27.397Z,63.79
2018-07-25T14:13:27.382Z,63.74
2018-07-25T14:16:27.428Z,63.83
2018-07-25T14:17:27.282Z,63.75
2018-07-25T14:19:27.397Z,63.75
2018-07-25T14:20:27.428Z,63.76
2018-07-25T14:21:27.392Z,63.75
2018-07-25T14:22:30.996Z,63.78
2018-07-25T14:24:29.131Z,63.73
2018-07-25T14:25:27.325Z,63.72
2018-07-25T14:27:27.662Z,63.73
2018-07-25T14:28:27.528Z,63.73
2018-07-25T14:29:28.853Z,63.73
2018-07-25T14:31:27.460Z,63.75
2018-07-25T14:32:27.445Z,63.72
2018-07-25T14:33:27.709Z,63.74
2018-07-25T14:34:27.544Z,63.71
2018-07-25T14:36:27.650Z,63.76
2018-07-25T14:37:31.350Z,63.7
2018-07-25T14:38:27.468Z,63.71
2018-07-25T14:39:27.505Z,63.69
2018-07-25T14:41:27.361Z,63.7
2018-07-25T14:42:27.360Z,63.71
2018-07-25T14:43:27.646Z,63.71
2018-07-25T14:44:30.610Z,63.75
2018-07-25T14:46:27.366Z,63.72
2018-07-25T14:47:27.393Z,63.7
2018-07-25T14:48:27.326Z,63.72
2018-07-25T14:49:27.445Z,63.68
2018-07-25T14:51:28.970Z,63.7
2018-07-25T14:54:28.802Z,63.66
2018-07-25T14:55:27.437Z,63.69
2018-07-25T14:57:27.417Z,63.63
2018-07-25T14:58:27.298Z,63.7
2018-07-25T14:59:31.682Z,63.59
2018-07-25T15:00:27.402Z,63.72
2018-07-25T15:02:29.150Z,63.65
2018-07-25T15:03:27.481Z,63.64
2018-07-25T15:04:27.534Z,63.6
2018-07-25T15:06:30.524Z,63.66
2018-07-25T15:07:27.384Z,63.69
2018-07-25T15:09:27.492Z,63.69
2018-07-25T15:10:27.367Z,63.61
2018-07-25T15:11:27.548Z,63.62
2018-07-25T15:15:27.462Z,63.63
2018-07-25T15:16:27.509Z,63.62
2018-07-25T15:17:27.506Z,63.65
2018-07-25T15:20:27.535Z,63.62
2018-07-25T15:21:30.943Z,63.64
2018-07-25T15:22:27.509Z,63.65
2018-07-25T15:23:27.245Z,63.65
2018-07-25T15:25:27.380Z,63.66
2018-07-25T15:27:27.656Z,63.65
2018-07-25T15:28:31.300Z,63.61
2018-07-25T15:29:29.016Z,63.64
2018-07-25T15:32:27.436Z,63.63
2018-07-25T15:33:27.415Z,63.65
2018-07-25T15:34:27.636Z,63.62
2018-07-25T15:35:27.644Z,63.64
2018-07-25T15:37:27.545Z,63.6
2018-07-25T15:38:27.441Z,63.61
2018-07-25T15:39:27.834Z,63.65